Terminal Aerodrome Forecast
Issued by NWS

Home | Current Version | Previous Version | Graphics & Text | Print | Product List | Glossary On
Versions: 1 2 3 4 5 6 7 8 9 10 11 12 13 14 15 16 17 18 19 20 21 22 23 24 25 26 27 28 29 30 31 32 33 34 35 36 37 38
000
FTUS43 KGRB 012300
TAFRHI
TAF
KRHI 012321Z 0200/0224 VRB03KT P6SM SCT050 SCT120
     FM020300 VRB02KT P6SM SKC
     FM020800 00000KT 4SM BR SKC
      TEMPO 0208/0212 1SM BR
     FM021400 17004KT P6SM SCT050=

USA.gov is the U.S. government's official web portal to all federal, state and local government web resources and services.